Terminal Aerodrome Forecast
Issued by NWS San Angelo, TX

Home | Current Version | Previous Version | Text Only | Print | Product List | Glossary On
Versions: 1 2 3 4 5 6 7 8 9 10 11 12 13 14 15 16 17 18
000
FTUS44 KSJT 230000 AAA
TAFSJT
TAF AMD
KSJT 230006Z 2300/2324 06010KT P6SM SCT030 BKN040 OVC050
     FM230300 VRB06KT P6SM BKN120
     FM231500 25015G25KT P6SM SKC
     FM231800 28022G35KT P6SM SKC=

USA.gov is the U.S. government's official web portal to all federal, state and local government web resources and services.